createdAt,value
2022-09-27T00:01:56.095Z,4.55
2022-09-27T00:04:24.351Z,5.55
2022-09-27T00:06:52.803Z,3.92
2022-09-27T00:09:21.331Z,4.50
2022-09-27T00:11:50.094Z,4.72
2022-09-27T00:14:19.853Z,3.40
2022-09-27T00:16:49.773Z,4.03
2022-09-27T00:19:21.848Z,4.15
2022-09-27T00:21:50.886Z,3.90
2022-09-27T00:24:22.178Z,3.20
2022-09-27T00:26:51.437Z,3.83
2022-09-27T00:29:21.096Z,3.40
2022-09-27T00:31:50.807Z,3.67
2022-09-27T00:34:23.612Z,6.10
2022-09-27T00:36:53.510Z,4.10
2022-09-27T00:39:22.059Z,3.97
2022-09-27T00:41:50.641Z,5.35
2022-09-27T00:45:07.368Z,3.17
2022-09-27T00:47:45.025Z,3.97
2022-09-27T00:50:27.494Z,3.67
2022-09-27T00:53:07.707Z,4.90
2022-09-27T00:55:42.859Z,4.00
2022-09-27T00:58:15.566Z,4.25
2022-09-27T01:00:51.920Z,3.65
2022-09-27T01:03:31.818Z,3.17
2022-09-27T01:06:02.699Z,4.13
2022-09-27T01:08:31.155Z,3.37
2022-09-27T01:11:19.665Z,4.10
2022-09-27T01:14:05.223Z,3.28
2022-09-27T01:16:45.260Z,4.68
2022-09-27T01:19:36.971Z,4.40
2022-09-27T01:22:13.155Z,3.92
2022-09-27T01:25:12.986Z,4.65
2022-09-27T01:28:13.839Z,3.80
2022-09-27T01:30:51.252Z,4.50
2022-09-27T01:33:37.070Z,4.50
2022-09-27T01:36:28.976Z,3.60
2022-09-27T01:39:10.486Z,3.25
2022-09-27T01:42:12.810Z,3.03
2022-09-27T01:44:53.681Z,3.10
2022-09-27T01:47:39.399Z,3.83
2022-09-27T01:50:41.514Z,3.90
2022-09-27T01:53:16.017Z,3.83
2022-09-27T01:56:10.677Z,3.67
2022-09-27T01:59:08.014Z,2.78
2022-09-27T02:01:40.485Z,3.40
2022-09-27T02:04:16.456Z,2.90
2022-09-27T02:07:21.379Z,3.05
2022-09-27T02:09:58.114Z,4.60
2022-09-27T02:12:45.243Z,3.35
2022-09-27T02:15:16.754Z,3.55
2022-09-27T02:18:01.488Z,3.15
2022-09-27T02:20:38.614Z,4.10
2022-09-27T02:23:20.103Z,3.95
2022-09-27T02:25:58.734Z,4.15
2022-09-27T02:28:32.485Z,3.22
2022-09-27T02:31:01.172Z,4.05
2022-09-27T02:33:43.454Z,3.60
2022-09-27T02:36:13.194Z,3.38
2022-09-27T02:38:42.621Z,3.15
2022-09-27T02:41:16.272Z,5.05
2022-09-27T02:43:49.608Z,3.83
2022-09-27T02:46:54.531Z,3.63
2022-09-27T02:49:46.045Z,5.65
2022-09-27T02:52:52.689Z,3.40
2022-09-27T02:55:35.788Z,5.03
2022-09-27T02:58:32.980Z,3.90
2022-09-27T03:01:32.918Z,3.55
2022-09-27T03:04:33.278Z,4.40
2022-09-27T03:07:03.152Z,4.15
2022-09-27T03:09:46.105Z,3.45
2022-09-27T03:12:20.628Z,4.15
2022-09-27T03:14:49.016Z,3.60
2022-09-27T03:17:37.754Z,5.68
2022-09-27T03:20:24.671Z,3.60
2022-09-27T03:23:00.782Z,3.60
2022-09-27T03:25:29.085Z,3.22
2022-09-27T03:27:58.909Z,4.32
2022-09-27T03:30:27.476Z,5.72
2022-09-27T03:32:56.113Z,5.03
2022-09-27T03:35:43.871Z,4.47
2022-09-27T03:38:12.636Z,3.63
2022-09-27T03:40:41.744Z,5.93
2022-09-27T03:43:12.609Z,6.40
2022-09-27T03:45:41.346Z,13.85
2022-09-27T03:48:12.611Z,5.63
2022-09-27T03:50:41.093Z,5.13
2022-09-27T03:53:10.027Z,5.23
2022-09-27T03:55:38.419Z,4.32
2022-09-27T03:58:07.088Z,5.25
2022-09-27T04:00:37.234Z,4.15
2022-09-27T04:03:06.123Z,4.25
2022-09-27T04:05:55.097Z,4.80
2022-09-27T04:08:31.268Z,4.80
2022-09-27T04:10:59.667Z,4.10
2022-09-27T04:13:28.380Z,4.57
2022-09-27T04:15:59.498Z,4.23
2022-09-27T04:18:48.045Z,4.75
2022-09-27T04:21:36.977Z,4.28
2022-09-27T04:24:06.628Z,3.55
2022-09-27T04:26:37.962Z,3.90
2022-09-27T04:29:16.058Z,4.80
2022-09-27T04:31:52.155Z,3.45
2022-09-27T04:34:46.066Z,3.87
2022-09-27T04:37:15.800Z,4.20
2022-09-27T04:39:50.285Z,4.22
2022-09-27T04:42:19.571Z,4.40
2022-09-27T04:44:47.778Z,4.60
2022-09-27T04:47:18.398Z,4.93
2022-09-27T04:49:46.737Z,8.40
2022-09-27T04:52:15.574Z,4.70
2022-09-27T04:54:44.110Z,8.45
2022-09-27T04:57:14.510Z,5.95
2022-09-27T04:59:44.245Z,8.15
2022-09-27T05:02:13.830Z,10.63
2022-09-27T05:05:12.256Z,9.60
2022-09-27T05:07:43.762Z,9.25
2022-09-27T05:10:17.507Z,10.93
2022-09-27T05:12:45.865Z,9.77
2022-09-27T05:15:16.862Z,9.32
2022-09-27T05:17:54.878Z,9.90
2022-09-27T05:21:02.964Z,9.18
2022-09-27T05:23:37.791Z,10.73
2022-09-27T05:26:06.802Z,11.77
2022-09-27T05:28:36.068Z,11.50
2022-09-27T05:31:04.501Z,11.25
2022-09-27T05:33:34.290Z,12.73
2022-09-27T05:36:39.220Z,15.30
2022-09-27T05:39:07.924Z,15.68
2022-09-27T05:41:36.946Z,15.77
2022-09-27T05:44:05.924Z,15.45
2022-09-27T05:46:35.016Z,17.00
2022-09-27T05:49:03.449Z,15.45
2022-09-27T05:51:31.811Z,18.10
2022-09-27T05:54:01.552Z,17.58
2022-09-27T05:56:30.354Z,18.88
2022-09-27T05:59:17.311Z,16.25
2022-09-27T06:02:04.345Z,19.30
2022-09-27T06:04:55.926Z,19.95
2022-09-27T06:07:44.288Z,22.33
2022-09-27T06:10:21.087Z,17.92
2022-09-27T06:12:50.218Z,20.23
2022-09-27T06:15:39.208Z,17.95
2022-09-27T06:18:11.124Z,20.63
2022-09-27T06:20:42.926Z,24.45
2022-09-27T06:23:14.218Z,20.17
2022-09-27T06:25:44.170Z,19.10
2022-09-27T06:28:24.595Z,17.80
2022-09-27T06:30:56.902Z,19.38
2022-09-27T06:33:40.986Z,20.30
2022-09-27T06:36:10.023Z,17.45
2022-09-27T06:38:40.534Z,17.35
2022-09-27T06:41:15.225Z,17.05
2022-09-27T06:44:09.763Z,17.10
2022-09-27T06:47:12.755Z,15.43
2022-09-27T06:49:59.883Z,10.02
2022-09-27T06:52:28.295Z,13.13
2022-09-27T06:54:56.673Z,11.57
2022-09-27T06:57:40.175Z,7.00
2022-09-27T07:00:27.499Z,9.07
2022-09-27T07:03:15.407Z,8.88
2022-09-27T07:06:06.199Z,7.55
2022-09-27T07:08:44.801Z,9.23
2022-09-27T07:11:13.173Z,6.80
2022-09-27T07:13:43.584Z,7.03
2022-09-27T07:16:14.118Z,5.00
2022-09-27T07:18:43.719Z,5.13
2022-09-27T07:21:12.911Z,3.90
2022-09-27T07:23:41.075Z,2.15
2022-09-27T07:26:11.510Z,3.60
2022-09-27T07:28:42.089Z,5.68
2022-09-27T07:31:14.774Z,5.78
2022-09-27T07:33:43.717Z,1.92
2022-09-27T07:36:14.467Z,3.42
2022-09-27T07:38:44.822Z,5.38
2022-09-27T07:41:15.152Z,3.88
2022-09-27T07:43:46.841Z,4.07
2022-09-27T07:46:16.269Z,4.05
2022-09-27T07:48:53.261Z,4.22
2022-09-27T07:51:40.081Z,7.32
2022-09-27T07:54:29.344Z,8.52
2022-09-27T07:57:36.143Z,9.35
2022-09-27T08:00:10.380Z,4.60
2022-09-27T08:02:41.729Z,6.35
2022-09-27T08:05:12.051Z,6.20
2022-09-27T08:07:41.817Z,4.13
2022-09-27T08:10:10.970Z,4.38
2022-09-27T08:12:39.643Z,5.13
2022-09-27T08:15:11.108Z,8.57
2022-09-27T08:17:39.327Z,4.78
2022-09-27T08:20:18.444Z,2.95
2022-09-27T08:23:07.790Z,4.07
2022-09-27T08:25:43.481Z,3.15
2022-09-27T08:28:32.668Z,2.97
2022-09-27T08:31:19.205Z,4.30
2022-09-27T08:33:51.134Z,3.40
2022-09-27T08:36:20.044Z,3.72
2022-09-27T08:38:50.823Z,6.25
2022-09-27T08:41:36.231Z,5.00
2022-09-27T08:44:18.064Z,6.80
2022-09-27T08:47:12.302Z,5.93
2022-09-27T08:49:48.497Z,5.10
2022-09-27T08:52:23.870Z,5.17
2022-09-27T08:54:53.573Z,6.80
2022-09-27T08:57:25.819Z,3.47
2022-09-27T09:00:06.267Z,3.28
2022-09-27T09:02:38.249Z,4.22
2022-09-27T09:05:13.217Z,3.60
2022-09-27T09:08:13.862Z,3.20
2022-09-27T09:11:15.074Z,8.27
2022-09-27T09:14:32.898Z,5.97
2022-09-27T09:17:17.332Z,2.30
2022-09-27T09:20:22.824Z,2.40
2022-09-27T09:23:25.657Z,4.93
2022-09-27T09:26:04.398Z,4.75
2022-09-27T09:28:53.205Z,3.73
2022-09-27T09:31:35.656Z,5.85
2022-09-27T09:34:15.436Z,5.67
2022-09-27T09:36:52.645Z,4.80
2022-09-27T09:39:27.398Z,5.00
2022-09-27T09:42:08.573Z,2.35
2022-09-27T09:44:51.563Z,3.20
2022-09-27T09:47:32.651Z,2.57
2022-09-27T09:50:07.984Z,7.75
2022-09-27T09:52:46.510Z,6.17
2022-09-27T09:55:22.058Z,2.58
2022-09-27T09:58:05.300Z,2.85
2022-09-27T10:00:44.240Z,3.42
2022-09-27T10:03:12.627Z,4.73
2022-09-27T10:05:45.768Z,2.78
2022-09-27T10:08:22.495Z,3.22
2022-09-27T10:11:00.039Z,2.30
2022-09-27T10:13:57.705Z,3.17
2022-09-27T10:16:29.124Z,1.83
2022-09-27T10:19:03.902Z,4.57
2022-09-27T10:21:34.964Z,4.93
2022-09-27T10:24:17.838Z,3.97
2022-09-27T10:27:01.668Z,2.08
2022-09-27T10:29:37.855Z,2.67
2022-09-27T10:32:27.205Z,3.33
2022-09-27T10:35:37.839Z,2.90
2022-09-27T10:38:24.971Z,3.75
2022-09-27T10:41:22.835Z,2.92
2022-09-27T10:43:51.977Z,2.30
2022-09-27T10:46:33.854Z,4.03
2022-09-27T10:49:29.830Z,3.47
2022-09-27T10:52:04.766Z,2.20
2022-09-27T10:54:38.616Z,1.95
2022-09-27T10:57:20.794Z,1.75
2022-09-27T10:59:56.733Z,2.30
2022-09-27T11:02:30.383Z,2.55
2022-09-27T11:05:35.771Z,4.88
2022-09-27T11:08:26.700Z,3.28
2022-09-27T11:11:08.914Z,3.10
2022-09-27T11:13:40.526Z,1.95
2022-09-27T11:16:35.298Z,2.50
2022-09-27T11:19:20.713Z,3.22
2022-09-27T11:22:01.148Z,4.90
2022-09-27T11:25:04.008Z,2.22
2022-09-27T11:27:52.043Z,3.55
2022-09-27T11:30:34.858Z,3.78
2022-09-27T11:33:52.052Z,3.85
2022-09-27T11:36:40.273Z,2.38
2022-09-27T11:39:23.969Z,2.00
2022-09-27T11:42:24.358Z,2.45
2022-09-27T11:45:41.005Z,2.25
2022-09-27T11:48:22.311Z,2.80
2022-09-27T11:51:06.494Z,2.08
2022-09-27T11:54:05.173Z,2.28
2022-09-27T11:56:47.139Z,4.43
2022-09-27T12:00:05.766Z,3.83
2022-09-27T12:03:28.214Z,2.40
2022-09-27T12:06:08.886Z,3.17
2022-09-27T12:08:59.574Z,4.30
2022-09-27T12:11:37.119Z,3.33
2022-09-27T12:14:15.133Z,4.25
2022-09-27T12:16:45.201Z,3.30
2022-09-27T12:19:22.771Z,3.35
2022-09-27T12:22:06.801Z,3.15
2022-09-27T12:24:40.354Z,2.10
2022-09-27T12:27:41.611Z,3.40
2022-09-27T12:30:15.666Z,3.17
2022-09-27T12:33:02.121Z,2.65
2022-09-27T12:35:40.928Z,1.80
2022-09-27T12:38:18.134Z,3.40
2022-09-27T12:40:50.553Z,5.20
2022-09-27T12:43:24.692Z,1.80
2022-09-27T12:46:14.426Z,5.13
2022-09-27T12:48:53.341Z,1.90
2022-09-27T12:51:24.853Z,2.72
2022-09-27T12:54:32.308Z,2.67
2022-09-27T12:57:17.983Z,4.05
2022-09-27T13:00:02.383Z,1.90
2022-09-27T13:03:18.132Z,2.88
2022-09-27T13:06:42.274Z,1.92
2022-09-27T13:09:58.071Z,3.10
2022-09-27T13:12:30.326Z,2.75
2022-09-27T13:15:06.653Z,2.67
2022-09-27T13:17:54.154Z,3.80
2022-09-27T13:20:44.247Z,2.58
2022-09-27T13:23:52.735Z,3.92
2022-09-27T13:26:48.843Z,3.13
2022-09-27T13:29:33.862Z,2.28
2022-09-27T13:32:23.657Z,2.42
2022-09-27T13:35:19.322Z,2.28
2022-09-27T13:37:58.947Z,2.22
2022-09-27T13:40:36.295Z,4.30
2022-09-27T13:43:42.501Z,1.70
2022-09-27T13:46:27.967Z,1.88
2022-09-27T13:49:02.388Z,2.45
2022-09-27T13:51:53.238Z,2.72
2022-09-27T13:54:50.387Z,3.17
2022-09-27T13:57:50.874Z,2.03
2022-09-27T14:00:26.341Z,3.35
2022-09-27T14:03:17.399Z,1.77
2022-09-27T14:05:57.982Z,1.67
2022-09-27T14:08:32.986Z,1.33
2022-09-27T14:11:05.324Z,4.55
2022-09-27T14:13:35.954Z,2.33
2022-09-27T14:16:10.892Z,2.97
2022-09-27T14:18:50.601Z,1.65
2022-09-27T14:21:32.176Z,1.92
2022-09-27T14:24:46.521Z,2.30
2022-09-27T14:27:22.886Z,2.15
2022-09-27T14:30:01.772Z,2.58
2022-09-27T14:32:36.865Z,2.25
2022-09-27T14:35:34.454Z,1.30
2022-09-27T14:38:26.314Z,2.75
2022-09-27T14:41:04.828Z,1.52
2022-09-27T14:43:33.168Z,5.05
2022-09-27T14:46:06.855Z,1.65
2022-09-27T14:48:37.720Z,2.42
2022-09-27T14:51:20.835Z,3.03
2022-09-27T14:53:56.519Z,2.20
2022-09-27T14:56:30.207Z,2.92
2022-09-27T14:59:05.692Z,2.67
2022-09-27T15:01:35.360Z,3.08
2022-09-27T15:04:10.816Z,2.40
2022-09-27T15:06:39.967Z,1.55
2022-09-27T15:09:13.363Z,2.30
2022-09-27T15:11:42.941Z,2.65
2022-09-27T15:14:17.494Z,3.55
2022-09-27T15:16:51.633Z,1.45
2022-09-27T15:19:26.937Z,1.38
2022-09-27T15:21:57.238Z,3.22
2022-09-27T15:24:40.488Z,1.98
2022-09-27T15:27:18.067Z,3.20
2022-09-27T15:29:51.238Z,2.50
2022-09-27T15:32:24.012Z,2.60
2022-09-27T15:34:53.260Z,4.13
2022-09-27T15:37:35.345Z,2.92
2022-09-27T15:40:55.684Z,2.88
2022-09-27T15:43:31.771Z,2.40
2022-09-27T15:46:03.927Z,2.85
2022-09-27T15:48:37.524Z,1.70
2022-09-27T15:51:43.533Z,3.72
2022-09-27T15:54:14.026Z,5.03
2022-09-27T15:56:43.591Z,2.22
2022-09-27T15:59:21.574Z,5.35
2022-09-27T16:01:52.784Z,2.55
2022-09-27T16:04:22.643Z,2.85
2022-09-27T16:06:51.383Z,5.57
2022-09-27T16:09:22.122Z,2.45
2022-09-27T16:11:51.731Z,3.30
2022-09-27T16:14:20.553Z,2.05
2022-09-27T16:16:52.562Z,4.40
2022-09-27T16:19:22.323Z,2.55
2022-09-27T16:21:50.861Z,6.05
2022-09-27T16:24:18.985Z,1.90
2022-09-27T16:26:47.106Z,3.67
2022-09-27T16:29:17.191Z,1.90
2022-09-27T16:31:46.352Z,6.73
2022-09-27T16:34:14.908Z,3.15
2022-09-27T16:36:44.405Z,3.78
2022-09-27T16:39:14.499Z,1.42
2022-09-27T16:41:43.559Z,2.75
2022-09-27T16:44:17.156Z,2.65
2022-09-27T16:46:47.169Z,4.32
2022-09-27T16:49:29.434Z,2.35
2022-09-27T16:52:02.416Z,2.10
2022-09-27T16:54:32.546Z,2.45
2022-09-27T16:57:01.440Z,2.10
2022-09-27T16:59:29.716Z,3.97
2022-09-27T17:01:58.539Z,3.92
2022-09-27T17:04:28.170Z,2.50
2022-09-27T17:06:57.936Z,1.77
2022-09-27T17:09:26.298Z,2.70
2022-09-27T17:11:56.228Z,1.80
2022-09-27T17:14:24.567Z,2.53
2022-09-27T17:16:53.071Z,3.30
2022-09-27T17:19:21.930Z,1.38
2022-09-27T17:21:50.217Z,8.18
2022-09-27T17:24:19.616Z,3.67
2022-09-27T17:26:47.651Z,2.97
2022-09-27T17:29:16.237Z,4.53
2022-09-27T17:31:46.045Z,3.17
2022-09-27T17:34:15.729Z,3.13
2022-09-27T17:36:48.305Z,2.85
2022-09-27T17:39:21.096Z,4.18
2022-09-27T17:41:50.379Z,2.28
2022-09-27T17:44:19.822Z,1.88
2022-09-27T17:47:08.250Z,3.10
2022-09-27T17:49:54.727Z,4.57
2022-09-27T17:52:23.467Z,2.20
2022-09-27T17:54:55.561Z,2.35
2022-09-27T17:57:24.565Z,4.25
2022-09-27T17:59:53.542Z,1.92
2022-09-27T18:02:22.007Z,3.83
2022-09-27T18:04:50.187Z,2.85
2022-09-27T18:07:19.653Z,2.13
2022-09-27T18:09:47.808Z,2.38
2022-09-27T18:12:17.393Z,1.75
2022-09-27T18:14:45.769Z,1.67
2022-09-27T18:17:14.099Z,2.93
2022-09-27T18:19:42.191Z,3.00
2022-09-27T18:22:10.283Z,1.77
2022-09-27T18:24:38.426Z,5.55
2022-09-27T18:27:06.564Z,3.93
2022-09-27T18:29:36.105Z,3.53
2022-09-27T18:32:04.215Z,2.15
2022-09-27T18:34:32.251Z,3.22
2022-09-27T18:37:00.276Z,5.03
2022-09-27T18:39:28.444Z,2.75
2022-09-27T18:41:56.612Z,4.82
2022-09-27T18:44:24.969Z,3.33
2022-09-27T18:46:54.464Z,3.67
2022-09-27T18:49:26.909Z,4.15
2022-09-27T18:51:56.670Z,4.70
2022-09-27T18:54:24.763Z,3.13
2022-09-27T18:56:53.317Z,4.60
2022-09-27T18:59:23.812Z,3.70
2022-09-27T19:01:53.674Z,3.20
2022-09-27T19:04:24.617Z,4.10
2022-09-27T19:06:53.994Z,6.32
2022-09-27T19:09:22.439Z,4.15
2022-09-27T19:11:50.625Z,4.72
2022-09-27T19:14:22.297Z,4.03
2022-09-27T19:16:51.987Z,6.22
2022-09-27T19:19:22.039Z,4.35
2022-09-27T19:21:50.383Z,5.50
2022-09-27T19:24:18.908Z,5.05
2022-09-27T19:26:47.199Z,3.90
2022-09-27T19:29:15.470Z,3.65
2022-09-27T19:31:43.889Z,5.30
2022-09-27T19:34:12.178Z,4.65
2022-09-27T19:36:41.945Z,4.32
2022-09-27T19:39:10.200Z,5.05
2022-09-27T19:41:38.609Z,4.93
2022-09-27T19:44:06.735Z,5.17
2022-09-27T19:46:34.950Z,6.50
2022-09-27T19:49:03.158Z,4.85
2022-09-27T19:51:32.409Z,5.10
2022-09-27T19:54:02.482Z,4.90
2022-09-27T19:56:31.120Z,6.63
2022-09-27T19:59:01.680Z,6.80
2022-09-27T20:01:32.467Z,8.87
2022-09-27T20:04:00.744Z,6.63
2022-09-27T20:06:28.993Z,6.93
2022-09-27T20:08:57.137Z,8.57
2022-09-27T20:11:29.356Z,6.60
2022-09-27T20:13:59.172Z,7.93
2022-09-27T20:16:28.514Z,7.50
2022-09-27T20:18:59.180Z,8.17
2022-09-27T20:21:32.401Z,6.63
2022-09-27T20:24:02.842Z,7.35
2022-09-27T20:26:34.506Z,9.07
2022-09-27T20:29:04.227Z,9.27
2022-09-27T20:31:36.725Z,6.32
2022-09-27T20:34:06.300Z,10.83
2022-09-27T20:36:37.298Z,6.20
2022-09-27T20:39:07.734Z,7.00
2022-09-27T20:41:39.810Z,8.73
2022-09-27T20:44:10.972Z,8.00
2022-09-27T20:46:41.149Z,7.63
2022-09-27T20:49:12.312Z,8.70
2022-09-27T20:51:43.446Z,8.48
2022-09-27T20:54:13.593Z,11.77
2022-09-27T20:56:46.132Z,12.82
2022-09-27T20:59:17.799Z,10.20
2022-09-27T21:01:48.670Z,9.13
2022-09-27T21:04:19.392Z,10.00
2022-09-27T21:06:47.821Z,8.27
2022-09-27T21:09:18.947Z,9.68
2022-09-27T21:11:51.606Z,9.27
2022-09-27T21:14:19.817Z,10.95
2022-09-27T21:16:49.023Z,7.68
2022-09-27T21:19:17.699Z,9.37
2022-09-27T21:21:46.055Z,8.70
2022-09-27T21:24:14.161Z,8.90
2022-09-27T21:26:42.381Z,10.07
2022-09-27T21:29:14.481Z,10.30
2022-09-27T21:31:42.855Z,10.43
2022-09-27T21:34:11.029Z,9.37
2022-09-27T21:36:39.976Z,9.65
2022-09-27T21:39:10.162Z,6.88
2022-09-27T21:41:39.371Z,7.47
2022-09-27T21:44:08.923Z,7.55
2022-09-27T21:46:41.788Z,8.57
2022-09-27T21:49:10.966Z,9.27
2022-09-27T21:51:41.530Z,7.53
2022-09-27T21:54:13.534Z,7.27
2022-09-27T21:56:43.946Z,6.93
2022-09-27T21:59:15.248Z,8.27
2022-09-27T22:01:47.035Z,6.57
2022-09-27T22:04:15.962Z,7.23
2022-09-27T22:06:44.916Z,7.47
2022-09-27T22:09:17.637Z,8.37
2022-09-27T22:11:47.634Z,8.13
2022-09-27T22:14:19.733Z,8.10
2022-09-27T22:16:49.866Z,6.77
2022-09-27T22:19:18.299Z,6.90
2022-09-27T22:21:47.162Z,7.30
2022-09-27T22:24:18.879Z,6.63
2022-09-27T22:26:51.765Z,6.47
2022-09-27T22:29:20.195Z,6.93
2022-09-27T22:31:49.727Z,7.13
2022-09-27T22:34:28.575Z,7.80
2022-09-27T22:36:58.237Z,7.03
2022-09-27T22:39:26.414Z,6.53
2022-09-27T22:41:54.603Z,8.03
2022-09-27T22:44:22.801Z,5.87
2022-09-27T22:46:52.266Z,6.33
2022-09-27T22:49:20.430Z,6.27
2022-09-27T22:51:48.487Z,7.57
2022-09-27T22:54:16.625Z,7.30
2022-09-27T22:56:44.797Z,6.10
2022-09-27T22:59:13.079Z,6.07
2022-09-27T23:01:41.461Z,9.73
2022-09-27T23:04:11.989Z,7.70
2022-09-27T23:06:40.118Z,8.27
2022-09-27T23:09:09.443Z,6.80
2022-09-27T23:11:38.449Z,8.27
2022-09-27T23:14:07.107Z,11.37
2022-09-27T23:16:36.737Z,7.37
2022-09-27T23:19:06.161Z,11.10
2022-09-27T23:21:35.656Z,8.03
2022-09-27T23:24:04.030Z,8.50
2022-09-27T23:26:32.154Z,7.47
2022-09-27T23:29:02.581Z,6.50
2022-09-27T23:31:33.542Z,8.83
2022-09-27T23:34:05.329Z,7.03
2022-09-27T23:36:35.314Z,9.37
2022-09-27T23:39:03.589Z,7.53
2022-09-27T23:41:31.724Z,7.20
2022-09-27T23:43:59.873Z,10.30
2022-09-27T23:46:28.658Z,9.23
2022-09-27T23:48:58.896Z,10.13
2022-09-27T23:51:27.211Z,8.30
2022-09-27T23:53:58.048Z,8.47
2022-09-27T23:56:26.961Z,9.70
2022-09-27T23:58:55.098Z,9.60
